Time;durP1;ratioP1;P1;durP2;ratioP2;P2;SDS_P1;SDS_P2;PMS_P1;PMS_P2;Temp;Humidity;BMP_temperature;BMP_pressure;BME280_temperature;BME280_humidity;BME280_pressure;Samples;Min_cycle;Max_cycle;Signal;HPM_P1;HPM_P2
2024/02/19 00:01:09;;;;;;;;;;;;;;;;;;5029476;28;20047;-67
2024/02/19 00:03:35;;;;;;;;;;;;;;;;;;5010981;28;19921;-67
2024/02/19 00:06:01;;;;;;;;;;;;;;;;;;5017417;28;19932;-65
2024/02/19 00:08:27;;;;;;;;;;;;;;;;;;5018842;28;20267;-66
2024/02/19 00:10:53;;;;;;;;;;;;;;;;;;5020683;28;20055;-66
2024/02/19 00:13:19;;;;;;;;;;;;;;;;;;5026072;28;20470;-65
2024/02/19 00:15:45;;;;;;;;;;;;;;;;;;5027766;28;19932;-67
2024/02/19 00:18:11;;;;;;;;;;;;;;;;;;5029660;28;20267;-66
2024/02/19 00:20:37;;;;;;;;;;;;;;;;;;5025045;28;19928;-66
2024/02/19 00:23:03;;;;;;;;;;;;;;;;;;5016944;28;20724;-67
2024/02/19 00:25:30;;;;;;;;;;;;;;;;;;5011428;28;19926;-67
2024/02/19 00:27:55;;;;;;;;;;;;;;;;;;5011871;28;19926;-66
2024/02/19 00:30:21;;;;;;;;;;;;;;;;;;5013138;28;20095;-67
2024/02/19 00:32:48;;;;;;;;;;;;;;;;;;5028994;28;19925;-67
2024/02/19 00:35:14;;;;;;;;;;;;;;;;;;5011069;28;20020;-67
2024/02/19 00:37:39;;;;;;;;;;;;;;;;;;5018794;28;20000;-66
2024/02/19 00:40:05;;;;;;;;;;;;;;;;;;5027960;28;20451;-66
2024/02/19 00:42:31;;;;;;;;;;;;;;;;;;5011451;28;20320;-66
2024/02/19 00:44:58;;;;;;;;;;;;;;;;;;5027226;28;19921;-67
2024/02/19 00:47:23;;;;;;;;;;;;;;;;;;5011985;28;19925;-67
2024/02/19 00:49:49;;;;;;;;;;;;;;;;;;5030189;28;19978;-67
2024/02/19 00:52:15;;;;;;;;;;;;;;;;;;5020495;28;19921;-67
2024/02/19 00:54:41;;;;;;;;;;;;;;;;;;5012470;28;19925;-67
2024/02/19 00:57:07;;;;;;;;;;;;;;;;;;5001380;28;20016;-67
2024/02/19 00:59:34;;;;;;;;;;;;;;;;;;5016395;28;19925;-67
2024/02/19 01:01:59;;;;;;;;;;;;;;;;;;5018498;28;19925;-67
2024/02/19 01:04:25;;;;;;;;;;;;;;;;;;4995836;28;19921;-67
2024/02/19 01:06:51;;;;;;;;;;;;;;;;;;5029439;28;19925;-67
2024/02/19 01:09:17;;;;;;;;;;;;;;;;;;5019231;28;19921;-67
2024/02/19 01:11:43;;;;;;;;;;;;;;;;;;5012971;28;20390;-67
2024/02/19 01:14:09;;;;;;;;;;;;;;;;;;4999979;28;20393;-66
2024/02/19 01:16:35;;;;;;;;;;;;;;;;;;5025189;28;20000;-66
2024/02/19 01:19:01;;;;;;;;;;;;;;;;;;5023531;28;19921;-67
2024/02/19 01:21:27;;;;;;;;;;;;;;;;;;5024121;28;19963;-66
2024/02/19 01:23:53;;;;;;;;;;;;;;;;;;5025694;28;20017;-67
2024/02/19 01:26:20;;;;;;;;;;;;;;;;;;5042036;28;19929;-67
2024/02/19 01:28:46;;;;;;;;;;;;;;;;;;5045117;28;20035;-67
2024/02/19 01:31:12;;;;;;;;;;;;;;;;;;5039866;28;20036;-68
2024/02/19 01:33:38;;;;;;;;;;;;;;;;;;5040438;28;19940;-67
2024/02/19 01:36:04;;;;;;;;;;;;;;;;;;5039246;28;19932;-67
2024/02/19 01:38:30;;;;;;;;;;;;;;;;;;5052227;28;20382;-67
2024/02/19 01:40:57;;;;;;;;;;;;;;;;;;5049241;28;19920;-68
2024/02/19 01:43:22;;;;;;;;;;;;;;;;;;5033369;28;19931;-68
2024/02/19 01:45:49;;;;;;;;;;;;;;;;;;5040581;28;19928;-67
2024/02/19 01:48:15;;;;;;;;;;;;;;;;;;5040918;28;19960;-68
2024/02/19 01:50:41;;;;;;;;;;;;;;;;;;5048585;28;20326;-67
2024/02/19 01:53:07;;;;;;;;;;;;;;;;;;5047113;28;20333;-67
2024/02/19 01:55:33;;;;;;;;;;;;;;;;;;5042244;28;19928;-67
2024/02/19 01:57:59;;;;;;;;;;;;;;;;;;5042759;28;19979;-67
2024/02/19 02:00:25;;;;;;;;;;;;;;;;;;5034006;28;19943;-67
2024/02/19 02:02:51;;;;;;;;;;;;;;;;;;5048760;28;20406;-67
2024/02/19 02:05:17;;;;;;;;;;;;;;;;;;5047796;28;19925;-67
2024/02/19 02:07:43;;;;;;;;;;;;;;;;;;5046708;28;19928;-68
2024/02/19 02:10:09;;;;;;;;;;;;;;;;;;5034848;28;19921;-68
2024/02/19 02:12:35;;;;;;;;;;;;;;;;;;5038225;28;19931;-68
2024/02/19 02:15:00;;;;;;;;;;;;;;;;;;5036140;28;20000;-68
2024/02/19 02:17:26;;;;;;;;;;;;;;;;;;5037460;28;19944;-68
2024/02/19 02:19:52;;;;;;;;;;;;;;;;;;5035994;28;20357;-68
2024/02/19 02:22:18;;;;;;;;;;;;;;;;;;5038019;28;19952;-69
2024/02/19 02:24:44;;;;;;;;;;;;;;;;;;5032715;28;20028;-68
2024/02/19 02:27:10;;;;;;;;;;;;;;;;;;4994408;28;20505;-68
2024/02/19 02:29:37;;;;;;;;;;;;;;;;;;5011513;28;20027;-68
2024/02/19 02:32:03;;;;;;;;;;;;;;;;;;5003200;28;19925;-68
2024/02/19 02:34:29;;;;;;;;;;;;;;;;;;5017432;28;20338;-67
2024/02/19 02:36:55;;;;;;;;;;;;;;;;;;5011251;28;19964;-67
2024/02/19 02:39:21;;;;;;;;;;;;;;;;;;5011550;28;19948;-68
2024/02/19 02:41:47;;;;;;;;;;;;;;;;;;5013880;28;20654;-68
2024/02/19 02:44:13;;;;;;;;;;;;;;;;;;5017420;28;19929;-67
2024/02/19 02:46:39;;;;;;;;;;;;;;;;;;5007112;28;20322;-67
2024/02/19 02:49:05;;;;;;;;;;;;;;;;;;5032075;28;19940;-68
2024/02/19 02:51:31;;;;;;;;;;;;;;;;;;5027811;28;19928;-68
2024/02/19 02:53:57;;;;;;;;;;;;;;;;;;5015798;28;20386;-67
2024/02/19 02:56:23;;;;;;;;;;;;;;;;;;5008115;28;20002;-68
2024/02/19 02:58:49;;;;;;;;;;;;;;;;;;5025302;28;19984;-67
2024/02/19 03:01:15;;;;;;;;;;;;;;;;;;5014168;28;20000;-67
2024/02/19 03:03:41;;;;;;;;;;;;;;;;;;5010636;28;20091;-67
2024/02/19 03:06:07;;;;;;;;;;;;;;;;;;4995509;28;19996;-67
2024/02/19 03:08:33;;;;;;;;;;;;;;;;;;5009433;28;19928;-67
2024/02/19 03:10:59;;;;;;;;;;;;;;;;;;5003489;28;19937;-67
2024/02/19 03:13:25;;;;;;;;;;;;;;;;;;5017906;28;19932;-67
2024/02/19 03:15:51;;;;;;;;;;;;;;;;;;5012626;28;20350;-67
2024/02/19 03:18:17;;;;;;;;;;;;;;;;;;5014740;28;19968;-67
2024/02/19 03:20:43;;;;;;;;;;;;;;;;;;5025279;28;19929;-67
2024/02/19 03:23:09;;;;;;;;;;;;;;;;;;5018465;28;19925;-67
2024/02/19 03:25:35;;;;;;;;;;;;;;;;;;5019519;28;19925;-67
2024/02/19 03:28:01;;;;;;;;;;;;;;;;;;5027508;28;19925;-67
2024/02/19 03:30:29;;;;;;;;;;;;;;;;;;5010470;28;19959;-67
2024/02/19 03:32:55;;;;;;;;;;;;;;;;;;5014561;28;20020;-67
2024/02/19 03:35:21;;;;;;;;;;;;;;;;;;5007516;28;20048;-67
2024/02/19 03:37:47;;;;;;;;;;;;;;;;;;5015603;28;20020;-67
2024/02/19 03:40:13;;;;;;;;;;;;;;;;;;5022480;28;20024;-67
2024/02/19 03:42:39;;;;;;;;;;;;;;;;;;5024630;28;19925;-67
2024/02/19 03:45:05;;;;;;;;;;;;;;;;;;5025636;28;19922;-67
2024/02/19 03:47:31;;;;;;;;;;;;;;;;;;5018576;28;19971;-67
2024/02/19 03:49:57;;;;;;;;;;;;;;;;;;5022319;28;19925;-67
2024/02/19 03:52:23;;;;;;;;;;;;;;;;;;5021261;28;20023;-68
2024/02/19 03:54:48;;;;;;;;;;;;;;;;;;5002730;28;19925;-67
2024/02/19 03:57:14;;;;;;;;;;;;;;;;;;5025628;28;19922;-67
2024/02/19 03:59:40;;;;;;;;;;;;;;;;;;5028553;28;19925;-67
2024/02/19 04:02:06;;;;;;;;;;;;;;;;;;5029212;28;19931;-67
2024/02/19 04:04:32;;;;;;;;;;;;;;;;;;5018912;28;19929;-67
2024/02/19 04:06:58;;;;;;;;;;;;;;;;;;5018804;28;19929;-66
2024/02/19 04:09:24;;;;;;;;;;;;;;;;;;5027469;28;19924;-66
2024/02/19 04:11:50;;;;;;;;;;;;;;;;;;4999404;28;20016;-66
2024/02/19 04:14:16;;;;;;;;;;;;;;;;;;5025318;28;20023;-68
2024/02/19 04:16:42;;;;;;;;;;;;;;;;;;5015446;28;19925;-67
2024/02/19 04:19:08;;;;;;;;;;;;;;;;;;5001882;28;20322;-66
2024/02/19 04:21:34;;;;;;;;;;;;;;;;;;5004536;28;19936;-67
2024/02/19 04:24:00;;;;;;;;;;;;;;;;;;5028686;28;20310;-67
2024/02/19 04:26:26;;;;;;;;;;;;;;;;;;5020187;28;20672;-67
2024/02/19 04:28:56;;;;;;;;;;;;;;;;;;5020939;28;20027;-66
2024/02/19 04:31:22;;;;;;;;;;;;;;;;;;5032266;28;19990;-66
2024/02/19 04:33:48;;;;;;;;;;;;;;;;;;5023914;28;19929;-67
2024/02/19 04:36:13;;;;;;;;;;;;;;;;;;5006570;28;20390;-67
2024/02/19 04:38:40;;;;;;;;;;;;;;;;;;5013731;28;19979;-66
2024/02/19 04:41:06;;;;;;;;;;;;;;;;;;5016145;28;19960;-67
2024/02/19 04:43:32;;;;;;;;;;;;;;;;;;4981383;28;19957;-67
2024/02/19 04:45:58;;;;;;;;;;;;;;;;;;5013813;28;20024;-67
2024/02/19 04:48:23;;;;;;;;;;;;;;;;;;5023408;28;19921;-67
2024/02/19 04:50:49;;;;;;;;;;;;;;;;;;5031677;28;20649;-67
2024/02/19 04:53:18;;;;;;;;;;;;;;;;;;5034244;28;19932;-66
2024/02/19 04:55:44;;;;;;;;;;;;;;;;;;5028084;28;19929;-67
2024/02/19 04:58:10;;;;;;;;;;;;;;;;;;5028622;28;19956;-66
2024/02/19 05:00:37;;;;;;;;;;;;;;;;;;5026739;28;19986;-68
2024/02/19 05:03:03;;;;;;;;;;;;;;;;;;5016502;28;20060;-67
2024/02/19 05:05:29;;;;;;;;;;;;;;;;;;5018312;28;20007;-67
2024/02/19 05:07:55;;;;;;;;;;;;;;;;;;5015025;28;19967;-68
2024/02/19 05:10:21;;;;;;;;;;;;;;;;;;5027439;28;19925;-67
2024/02/19 05:12:46;;;;;;;;;;;;;;;;;;5021645;28;20286;-68
2024/02/19 05:15:12;;;;;;;;;;;;;;;;;;5025692;28;19929;-67
2024/02/19 05:17:38;;;;;;;;;;;;;;;;;;5033421;28;19932;-67
2024/02/19 05:20:05;;;;;;;;;;;;;;;;;;5031276;28;19936;-67
2024/02/19 05:22:31;;;;;;;;;;;;;;;;;;5018175;28;20430;-67
2024/02/19 05:24:57;;;;;;;;;;;;;;;;;;5013640;28;19926;-67
2024/02/19 05:27:24;;;;;;;;;;;;;;;;;;5024345;28;19936;-67
2024/02/19 05:29:50;;;;;;;;;;;;;;;;;;5023116;28;19927;-68
2024/02/19 05:32:16;;;;;;;;;;;;;;;;;;5020959;28;19925;-67
2024/02/19 05:34:41;;;;;;;;;;;;;;;;;;5028805;28;19987;-67
2024/02/19 05:37:07;;;;;;;;;;;;;;;;;;5018386;28;20330;-67
2024/02/19 05:39:33;;;;;;;;;;;;;;;;;;5030756;28;20355;-67
2024/02/19 05:41:59;;;;;;;;;;;;;;;;;;5026922;28;19925;-67
2024/02/19 05:44:25;;;;;;;;;;;;;;;;;;5027774;28;19927;-67
2024/02/19 05:46:51;;;;;;;;;;;;;;;;;;5030075;28;19928;-67
2024/02/19 05:49:18;;;;;;;;;;;;;;;;;;5024315;28;19925;-67
2024/02/19 05:51:44;;;;;;;;;;;;;;;;;;5015142;28;19929;-67
2024/02/19 05:54:10;;;;;;;;;;;;;;;;;;4996113;28;20291;-67
2024/02/19 05:56:36;;;;;;;;;;;;;;;;;;5009912;28;19964;-68
2024/02/19 05:59:02;;;;;;;;;;;;;;;;;;5022704;28;20019;-67
2024/02/19 06:01:28;;;;;;;;;;;;;;;;;;5017227;28;19953;-67
2024/02/19 06:03:54;;;;;;;;;;;;;;;;;;5026471;28;19921;-67
2024/02/19 06:06:19;;;;;;;;;;;;;;;;;;5008825;28;21161;-68
2024/02/19 06:08:45;;;;;;;;;;;;;;;;;;4997973;28;20495;-67
2024/02/19 06:11:11;;;;;;;;;;;;;;;;;;5017156;28;20540;-67
2024/02/19 06:13:37;;;;;;;;;;;;;;;;;;5031577;28;19929;-67
2024/02/19 06:16:03;;;;;;;;;;;;;;;;;;5026571;28;20056;-67
2024/02/19 06:18:29;;;;;;;;;;;;;;;;;;5026000;28;20474;-67
2024/02/19 06:20:55;;;;;;;;;;;;;;;;;;5020860;28;19921;-67
2024/02/19 06:23:21;;;;;;;;;;;;;;;;;;5014091;28;19921;-67
2024/02/19 06:25:47;;;;;;;;;;;;;;;;;;5014085;28;19925;-67
2024/02/19 06:28:13;;;;;;;;;;;;;;;;;;5022590;28;20303;-67
2024/02/19 06:30:39;;;;;;;;;;;;;;;;;;5025013;28;19929;-67
2024/02/19 06:33:05;;;;;;;;;;;;;;;;;;5018536;28;19921;-66
2024/02/19 06:35:31;;;;;;;;;;;;;;;;;;5028690;28;19982;-66
2024/02/19 06:37:57;;;;;;;;;;;;;;;;;;5023156;28;19922;-67
2024/02/19 06:40:23;;;;;;;;;;;;;;;;;;5000886;28;19925;-67
2024/02/19 06:42:49;;;;;;;;;;;;;;;;;;5011967;28;19929;-67
2024/02/19 06:45:15;;;;;;;;;;;;;;;;;;5020582;28;19974;-67
2024/02/19 06:47:42;;;;;;;;;;;;;;;;;;5029248;28;19925;-67
2024/02/19 06:50:08;;;;;;;;;;;;;;;;;;5030165;28;20094;-68
2024/02/19 06:52:34;;;;;;;;;;;;;;;;;;5025323;28;20004;-68
2024/02/19 06:55:00;;;;;;;;;;;;;;;;;;5017400;28;19925;-67
2024/02/19 06:57:26;;;;;;;;;;;;;;;;;;5021400;28;19925;-68
2024/02/19 06:59:52;;;;;;;;;;;;;;;;;;5023709;28;19979;-67
2024/02/19 07:02:20;;;;;;;;;;;;;;;;;;5013570;28;19925;-68
2024/02/19 07:04:48;;;;;;;;;;;;;;;;;;5016489;28;20218;-67
2024/02/19 07:07:13;;;;;;;;;;;;;;;;;;4992937;28;19925;-67
2024/02/19 07:09:40;;;;;;;;;;;;;;;;;;5000551;28;19922;-68
2024/02/19 07:12:06;;;;;;;;;;;;;;;;;;5024296;28;20044;-68
2024/02/19 07:14:32;;;;;;;;;;;;;;;;;;5031232;28;19945;-67
2024/02/19 07:16:58;;;;;;;;;;;;;;;;;;5014479;28;19972;-68
2024/02/19 07:19:24;;;;;;;;;;;;;;;;;;5018542;28;20416;-68
2024/02/19 07:21:50;;;;;;;;;;;;;;;;;;5030959;28;20454;-67
2024/02/19 07:24:15;;;;;;;;;;;;;;;;;;5031141;28;20307;-67
2024/02/19 07:26:41;;;;;;;;;;;;;;;;;;5013149;28;19921;-67
2024/02/19 07:29:07;;;;;;;;;;;;;;;;;;5016628;28;19925;-66
2024/02/19 07:31:33;;;;;;;;;;;;;;;;;;5011245;28;19930;-68
2024/02/19 07:33:59;;;;;;;;;;;;;;;;;;5010645;28;19929;-67
2024/02/19 07:36:25;;;;;;;;;;;;;;;;;;4999363;28;20434;-67
2024/02/19 07:38:51;;;;;;;;;;;;;;;;;;5019633;28;19921;-67
2024/02/19 07:41:17;;;;;;;;;;;;;;;;;;5019895;28;19933;-67
2024/02/19 07:43:43;;;;;;;;;;;;;;;;;;5004644;28;19936;-67
2024/02/19 07:46:09;;;;;;;;;;;;;;;;;;5017048;28;19952;-66
2024/02/19 07:48:35;;;;;;;;;;;;;;;;;;5004594;28;19928;-67
2024/02/19 07:51:01;;;;;;;;;;;;;;;;;;5016283;28;20402;-67
2024/02/19 07:53:26;;;;;;;;;;;;;;;;;;5022108;28;20056;-67
2024/02/19 07:55:52;;;;;;;;;;;;;;;;;;4998729;28;20056;-67
2024/02/19 07:58:20;;;;;;;;;;;;;;;;;;4998763;28;19998;-67
2024/02/19 08:00:46;;;;;;;;;;;;;;;;;;5026616;28;19929;-67
2024/02/19 08:03:12;;;;;;;;;;;;;;;;;;4996969;28;20088;-67
2024/02/19 08:05:38;;;;;;;;;;;;;;;;;;5026543;28;20294;-66
2024/02/19 08:08:04;;;;;;;;;;;;;;;;;;5033384;28;19931;-66
2024/02/19 08:10:30;;;;;;;;;;;;;;;;;;5026125;28;19921;-66
2024/02/19 08:12:56;;;;;;;;;;;;;;;;;;5025949;28;20494;-67
2024/02/19 08:15:22;;;;;;;;;;;;;;;;;;5000408;28;19929;-67
2024/02/19 08:17:48;;;;;;;;;;;;;;;;;;5014902;28;19928;-68
2024/02/19 08:20:14;;;;;;;;;;;;;;;;;;4996951;28;20275;-67
2024/02/19 08:22:40;;;;;;;;;;;;;;;;;;5017838;28;19947;-66
2024/02/19 08:25:06;;;;;;;;;;;;;;;;;;5013191;28;20290;-66
2024/02/19 08:27:32;;;;;;;;;;;;;;;;;;5052325;28;19925;-67
2024/02/19 08:29:58;;;;;;;;;;;;;;;;;;5045184;28;19928;-67
2024/02/19 08:32:24;;;;;;;;;;;;;;;;;;5036341;28;20672;-67
2024/02/19 08:34:50;;;;;;;;;;;;;;;;;;5048167;28;19932;-67
2024/02/19 08:37:18;;;;;;;;;;;;;;;;;;5041719;28;19978;-67
2024/02/19 08:39:44;;;;;;;;;;;;;;;;;;5041041;28;20270;-67
2024/02/19 08:42:09;;;;;;;;;;;;;;;;;;5046802;28;19925;-67
2024/02/19 08:44:35;;;;;;;;;;;;;;;;;;5033855;28;19925;-67
2024/02/19 08:47:07;;;;;;;;;;;;;;;;;;5040920;28;20355;-67
2024/02/19 08:49:33;;;;;;;;;;;;;;;;;;5050929;28;19939;-67
2024/02/19 08:51:59;;;;;;;;;;;;;;;;;;5052997;28;20423;-68
2024/02/19 08:54:27;;;;;;;;;;;;;;;;;;5049296;28;19924;-68
2024/02/19 08:56:53;;;;;;;;;;;;;;;;;;5038074;28;19925;-68
2024/02/19 08:59:19;;;;;;;;;;;;;;;;;;5045328;28;19925;-67
2024/02/19 09:01:45;;;;;;;;;;;;;;;;;;5050810;28;20472;-67
2024/02/19 09:04:11;;;;;;;;;;;;;;;;;;5050368;28;20011;-65
2024/02/19 09:06:36;;;;;;;;;;;;;;;;;;5049122;28;20373;-67
2024/02/19 09:09:03;;;;;;;;;;;;;;;;;;5045339;28;19925;-68
2024/02/19 09:11:29;;;;;;;;;;;;;;;;;;5035543;28;19976;-66
2024/02/19 09:13:55;;;;;;;;;;;;;;;;;;5036664;28;19925;-67
2024/02/19 09:16:21;;;;;;;;;;;;;;;;;;5043433;28;20370;-67
2024/02/19 09:18:47;;;;;;;;;;;;;;;;;;5049321;28;19929;-66
2024/02/19 09:21:13;;;;;;;;;;;;;;;;;;5039134;28;19921;-66
2024/02/19 09:23:39;;;;;;;;;;;;;;;;;;5037512;28;19928;-67
2024/02/19 09:26:05;;;;;;;;;;;;;;;;;;5017582;28;19929;-67
2024/02/19 09:28:31;;;;;;;;;;;;;;;;;;5032234;28;20485;-66
2024/02/19 09:30:57;;;;;;;;;;;;;;;;;;5020284;28;19922;-66
2024/02/19 09:33:23;;;;;;;;;;;;;;;;;;5018619;28;20298;-67
2024/02/19 09:35:49;;;;;;;;;;;;;;;;;;5013707;28;20287;-66
2024/02/19 09:38:15;;;;;;;;;;;;;;;;;;5027306;28;19925;-66
2024/02/19 09:40:42;;;;;;;;;;;;;;;;;;5026410;28;19970;-66
2024/02/19 09:43:08;;;;;;;;;;;;;;;;;;5021370;28;19961;-66
2024/02/19 09:45:36;;;;;;;;;;;;;;;;;;5016222;28;19956;-66
2024/02/19 09:48:02;;;;;;;;;;;;;;;;;;5013454;28;19922;-66
2024/02/19 09:50:28;;;;;;;;;;;;;;;;;;5001406;28;21166;-67
2024/02/19 09:52:54;;;;;;;;;;;;;;;;;;5021805;28;20307;-66
2024/02/19 09:55:20;;;;;;;;;;;;;;;;;;5017310;28;20042;-66
2024/02/19 09:57:46;;;;;;;;;;;;;;;;;;5028440;28;20020;-66
2024/02/19 10:00:12;;;;;;;;;;;;;;;;;;5015619;28;20375;-66
2024/02/19 10:02:38;;;;;;;;;;;;;;;;;;5013412;28;19921;-66
2024/02/19 10:05:07;;;;;;;;;;;;;;;;;;5018087;28;19928;-66
2024/02/19 10:07:33;;;;;;;;;;;;;;;;;;5017736;28;19960;-66
2024/02/19 10:09:59;;;;;;;;;;;;;;;;;;5012538;28;19925;-66
2024/02/19 10:12:24;;;;;;;;;;;;;;;;;;5018931;28;19979;-66
2024/02/19 10:14:51;;;;;;;;;;;;;;;;;;5030325;28;19932;-66
2024/02/19 10:17:17;;;;;;;;;;;;;;;;;;4999960;28;19925;-66
2024/02/19 10:19:43;;;;;;;;;;;;;;;;;;5012366;28;20394;-66
2024/02/19 10:22:09;;;;;;;;;;;;;;;;;;5015208;28;19924;-67
2024/02/19 10:24:35;;;;;;;;;;;;;;;;;;5030544;28;19929;-65
2024/02/19 10:27:01;;;;;;;;;;;;;;;;;;5026626;28;19932;-66
2024/02/19 10:29:27;;;;;;;;;;;;;;;;;;5023356;28;20398;-66
2024/02/19 10:31:52;;;;;;;;;;;;;;;;;;5021492;28;19934;-67
2024/02/19 10:34:18;;;;;;;;;;;;;;;;;;5020118;28;19930;-66
2024/02/19 10:36:49;;;;;;;;;;;;;;;;;;5011434;28;19933;-66
2024/02/19 10:39:15;;;;;;;;;;;;;;;;;;5053177;23;19933;-67
2024/02/19 10:41:41;;;;;;;;;;;;;;;;;;5062143;28;19924;-68
2024/02/19 10:44:07;;;;;;;;;;;;;;;;;;5070643;28;19925;-68
2024/02/19 10:46:33;;;;;;;;;;;;;;;;;;5070553;28;20015;-69
2024/02/19 10:48:59;;;;;;;;;;;;;;;;;;5068584;28;20058;-68
2024/02/19 10:51:25;;;;;;;;;;;;;;;;;;5070039;28;20420;-68
2024/02/19 10:53:50;;;;;;;;;;;;;;;;;;5070784;28;20034;-68
2024/02/19 10:56:17;;;;;;;;;;;;;;;;;;5070333;28;19928;-69
2024/02/19 10:58:43;;;;;;;;;;;;;;;;;;5058796;28;20333;-68
2024/02/19 11:01:09;;;;;;;;;;;;;;;;;;5069857;28;19927;-68
2024/02/19 11:03:35;;;;;;;;;;;;;;;;;;5044144;28;19924;-69
2024/02/19 11:06:03;;;;;;;;;;;;;;;;;;5069959;28;19947;-68
2024/02/19 11:08:34;;;;;;;;;;;;;;;;;;5067313;28;19924;-69
2024/02/19 11:11:03;;;;;;;;;;;;;;;;;;5066691;28;19924;-70
2024/02/19 11:13:29;;;;;;;;;;;;;;;;;;5071043;28;19975;-69
2024/02/19 11:15:55;;;;;;;;;;;;;;;;;;5070057;28;19920;-69
2024/02/19 11:18:22;;;;;;;;;;;;;;;;;;5052758;28;19924;-69
2024/02/19 11:20:48;;;;;;;;;;;;;;;;;;5069993;28;19920;-69
2024/02/19 11:23:17;;;;;;;;;;;;;;;;;;5054080;28;20396;-68
2024/02/19 11:25:43;;;;;;;;;;;;;;;;;;5044374;28;19931;-69
2024/02/19 11:28:09;;;;;;;;;;;;;;;;;;5055952;28;20385;-68
2024/02/19 11:30:35;;;;;;;;;;;;;;;;;;5067059;28;19921;-69
2024/02/19 11:33:01;;;;;;;;;;;;;;;;;;5050240;28;19978;-69
2024/02/19 11:35:27;;;;;;;;;;;;;;;;;;5051582;28;19924;-68
2024/02/19 11:37:53;;;;;;;;;;;;;;;;;;5063486;28;19927;-69
2024/02/19 11:40:19;;;;;;;;;;;;;;;;;;5049927;28;19928;-69
2024/02/19 11:42:45;;;;;;;;;;;;;;;;;;5025791;28;20707;-69
2024/02/19 11:45:11;;;;;;;;;;;;;;;;;;5047166;28;19978;-69
2024/02/19 11:47:37;;;;;;;;;;;;;;;;;;5050882;28;19950;-68
2024/02/19 11:50:05;;;;;;;;;;;;;;;;;;5046493;28;20694;-69
2024/02/19 11:52:31;;;;;;;;;;;;;;;;;;5050041;28;19929;-69
2024/02/19 11:54:57;;;;;;;;;;;;;;;;;;5033114;28;19978;-70
2024/02/19 11:57:24;;;;;;;;;;;;;;;;;;5044454;28;19932;-69
2024/02/19 11:59:51;;;;;;;;;;;;;;;;;;5044420;28;19932;-69
2024/02/19 12:02:20;;;;;;;;;;;;;;;;;;5047574;28;20370;-69
2024/02/19 12:04:50;;;;;;;;;;;;;;;;;;5033706;28;20362;-69
2024/02/19 12:07:16;;;;;;;;;;;;;;;;;;5043979;28;19928;-69
2024/02/19 12:09:42;;;;;;;;;;;;;;;;;;5031029;28;19925;-69
2024/02/19 12:12:08;;;;;;;;;;;;;;;;;;5038394;28;20394;-69
2024/02/19 12:14:34;;;;;;;;;;;;;;;;;;5013097;28;19925;-70
2024/02/19 12:17:03;;;;;;;;;;;;;;;;;;5038267;28;19928;-69
2024/02/19 12:19:29;;;;;;;;;;;;;;;;;;5016210;28;19921;-69
2024/02/19 12:21:55;;;;;;;;;;;;;;;;;;5050261;28;20407;-69
2024/02/19 12:24:23;;;;;;;;;;;;;;;;;;5050791;28;19920;-68
2024/02/19 12:26:49;;;;;;;;;;;;;;;;;;5036410;28;19976;-70
2024/02/19 12:29:15;;;;;;;;;;;;;;;;;;5030831;28;20006;-69
2024/02/19 12:31:41;;;;;;;;;;;;;;;;;;5034066;28;19925;-69
2024/02/19 12:34:07;;;;;;;;;;;;;;;;;;5044836;28;19936;-69
2024/02/19 12:36:33;;;;;;;;;;;;;;;;;;5045487;28;19925;-69
2024/02/19 12:39:01;;;;;;;;;;;;;;;;;;5015948;28;19936;-69
2024/02/19 12:41:26;;;;;;;;;;;;;;;;;;5058775;28;20383;-69
2024/02/19 12:43:52;;;;;;;;;;;;;;;;;;5045477;28;19925;-69
2024/02/19 12:46:19;;;;;;;;;;;;;;;;;;5071788;28;19932;-69
2024/02/19 12:48:45;;;;;;;;;;;;;;;;;;5032124;28;19928;-69
2024/02/19 12:51:11;;;;;;;;;;;;;;;;;;5052210;28;19920;-69
2024/02/19 12:53:37;;;;;;;;;;;;;;;;;;5037754;28;19930;-69
2024/02/19 12:56:05;;;;;;;;;;;;;;;;;;5069633;28;20038;-69
2024/02/19 12:58:31;;;;;;;;;;;;;;;;;;5072269;28;20323;-69
2024/02/19 13:00:56;;;;;;;;;;;;;;;;;;5053791;28;20261;-68
2024/02/19 13:03:24;;;;;;;;;;;;;;;;;;5069800;28;19931;-69
2024/02/19 13:05:50;;;;;;;;;;;;;;;;;;5051694;28;19932;-69
2024/02/19 13:08:17;;;;;;;;;;;;;;;;;;5052929;28;20290;-70
2024/02/19 13:10:43;;;;;;;;;;;;;;;;;;5053084;28;20019;-69
2024/02/19 13:13:12;;;;;;;;;;;;;;;;;;5070625;28;20016;-70
2024/02/19 13:15:38;;;;;;;;;;;;;;;;;;5054760;28;19924;-69
2024/02/19 13:18:05;;;;;;;;;;;;;;;;;;5054738;28;20362;-69
2024/02/19 13:20:31;;;;;;;;;;;;;;;;;;5022719;28;19920;-70
2024/02/19 13:22:57;;;;;;;;;;;;;;;;;;5052192;28;20019;-70
2024/02/19 13:25:23;;;;;;;;;;;;;;;;;;5052492;28;20374;-70
2024/02/19 13:27:49;;;;;;;;;;;;;;;;;;5052481;28;19921;-70
2024/02/19 13:30:17;;;;;;;;;;;;;;;;;;5068818;28;20388;-70
2024/02/19 13:32:45;;;;;;;;;;;;;;;;;;5071816;28;20031;-69
2024/02/19 13:35:11;;;;;;;;;;;;;;;;;;5056749;28;19974;-70
2024/02/19 13:37:38;;;;;;;;;;;;;;;;;;5050675;28;19931;-69
2024/02/19 13:40:05;;;;;;;;;;;;;;;;;;5034196;28;20425;-69
2024/02/19 13:42:33;;;;;;;;;;;;;;;;;;5052588;28;19925;-69
2024/02/19 13:44:59;;;;;;;;;;;;;;;;;;5034067;28;19924;-69
2024/02/19 13:47:24;;;;;;;;;;;;;;;;;;5052009;28;19931;-70
2024/02/19 13:49:50;;;;;;;;;;;;;;;;;;5070225;28;19983;-70
2024/02/19 13:52:16;;;;;;;;;;;;;;;;;;5043108;28;20408;-69
2024/02/19 13:54:42;;;;;;;;;;;;;;;;;;5052110;28;19925;-70
2024/02/19 13:57:09;;;;;;;;;;;;;;;;;;5052436;28;19932;-70
2024/02/19 13:59:34;;;;;;;;;;;;;;;;;;5052052;28;19925;-69
2024/02/19 14:02:00;;;;;;;;;;;;;;;;;;5051209;28;20386;-69
2024/02/19 14:04:27;;;;;;;;;;;;;;;;;;5053667;28;19931;-70
2024/02/19 14:06:53;;;;;;;;;;;;;;;;;;5069222;28;19925;-70
2024/02/19 14:09:19;;;;;;;;;;;;;;;;;;5051457;28;20301;-70
2024/02/19 14:11:45;;;;;;;;;;;;;;;;;;5049221;28;19998;-69
2024/02/19 14:14:11;;;;;;;;;;;;;;;;;;5033477;28;20366;-69
2024/02/19 14:16:37;;;;;;;;;;;;;;;;;;5033646;28;19958;-69
2024/02/19 14:19:03;;;;;;;;;;;;;;;;;;5051958;28;19960;-69
2024/02/19 14:21:29;;;;;;;;;;;;;;;;;;5070394;28;20019;-70
2024/02/19 14:23:55;;;;;;;;;;;;;;;;;;5055198;28;20423;-69
2024/02/19 14:26:23;;;;;;;;;;;;;;;;;;5034243;28;19960;-68
2024/02/19 14:28:49;;;;;;;;;;;;;;;;;;5041502;28;19924;-67
2024/02/19 14:31:15;;;;;;;;;;;;;;;;;;5071565;28;20369;-68
2024/02/19 14:33:42;;;;;;;;;;;;;;;;;;5071855;28;19929;-69
2024/02/19 14:36:08;;;;;;;;;;;;;;;;;;5070869;28;19924;-69
2024/02/19 14:38:34;;;;;;;;;;;;;;;;;;5040662;28;20019;-69
2024/02/19 14:41:00;;;;;;;;;;;;;;;;;;5051399;28;20011;-70
2024/02/19 14:43:26;;;;;;;;;;;;;;;;;;5052025;28;19928;-70
2024/02/19 14:45:52;;;;;;;;;;;;;;;;;;5050597;28;20298;-68
2024/02/19 14:48:18;;;;;;;;;;;;;;;;;;5013586;28;19920;-68
2024/02/19 14:50:45;;;;;;;;;;;;;;;;;;5047287;28;19925;-68
2024/02/19 14:53:11;;;;;;;;;;;;;;;;;;5045712;28;19978;-69
2024/02/19 14:55:37;;;;;;;;;;;;;;;;;;5048627;28;20262;-68
2024/02/19 14:58:04;;;;;;;;;;;;;;;;;;5050462;28;19921;-68
2024/02/19 15:00:31;;;;;;;;;;;;;;;;;;5042946;28;20389;-68
2024/02/19 15:02:57;;;;;;;;;;;;;;;;;;5023168;28;19932;-68
2024/02/19 15:05:23;;;;;;;;;;;;;;;;;;5041520;28;19920;-67
2024/02/19 15:07:53;;;;;;;;;;;;;;;;;;5051473;28;19995;-68
2024/02/19 15:10:24;;;;;;;;;;;;;;;;;;5049991;28;20266;-68
2024/02/19 15:12:49;;;;;;;;;;;;;;;;;;5050232;28;20325;-68
2024/02/19 15:15:15;;;;;;;;;;;;;;;;;;5025623;28;20058;-68
2024/02/19 15:17:41;;;;;;;;;;;;;;;;;;5044624;28;19973;-68
2024/02/19 15:20:08;;;;;;;;;;;;;;;;;;5050973;28;20274;-68
2024/02/19 15:22:34;;;;;;;;;;;;;;;;;;5050945;28;19973;-67
2024/02/19 15:25:03;;;;;;;;;;;;;;;;;;5031653;28;19921;-68
2024/02/19 15:27:29;;;;;;;;;;;;;;;;;;5050209;28;19928;-68
2024/02/19 15:29:56;;;;;;;;;;;;;;;;;;5050253;28;19956;-68
2024/02/19 15:32:23;;;;;;;;;;;;;;;;;;5026403;28;19936;-68
2024/02/19 15:34:49;;;;;;;;;;;;;;;;;;5049884;28;19935;-68
2024/02/19 15:37:15;;;;;;;;;;;;;;;;;;5049389;28;19936;-69
2024/02/19 15:39:43;;;;;;;;;;;;;;;;;;5049441;28;19933;-68
2024/02/19 15:42:09;;;;;;;;;;;;;;;;;;5050548;28;19925;-68
2024/02/19 15:44:35;;;;;;;;;;;;;;;;;;5048438;28;20406;-68
2024/02/19 15:47:01;;;;;;;;;;;;;;;;;;5026859;28;19928;-68
2024/02/19 15:49:27;;;;;;;;;;;;;;;;;;5030335;28;20586;-68
2024/02/19 15:51:53;;;;;;;;;;;;;;;;;;5030644;28;19929;-69
2024/02/19 15:54:19;;;;;;;;;;;;;;;;;;5038490;28;19925;-68
2024/02/19 15:56:45;;;;;;;;;;;;;;;;;;5030774;28;19929;-68
2024/02/19 15:59:11;;;;;;;;;;;;;;;;;;5031242;28;20310;-67
2024/02/19 16:01:37;;;;;;;;;;;;;;;;;;5026722;28;19931;-68
2024/02/19 16:04:03;;;;;;;;;;;;;;;;;;5033357;28;19928;-69
2024/02/19 16:06:31;;;;;;;;;;;;;;;;;;5017796;28;20000;-68
2024/02/19 16:08:57;;;;;;;;;;;;;;;;;;5031135;28;20552;-68
2024/02/19 16:11:22;;;;;;;;;;;;;;;;;;5047608;28;19931;-68
2024/02/19 16:13:50;;;;;;;;;;;;;;;;;;5052383;28;20008;-67
2024/02/19 16:16:16;;;;;;;;;;;;;;;;;;5048768;28;19987;-68
2024/02/19 16:18:42;;;;;;;;;;;;;;;;;;5051961;28;19964;-67
2024/02/19 16:21:08;;;;;;;;;;;;;;;;;;5038811;28;19956;-67
2024/02/19 16:23:36;;;;;;;;;;;;;;;;;;5027079;28;19935;-68
2024/02/19 16:26:05;;;;;;;;;;;;;;;;;;5032848;28;19932;-68
2024/02/19 16:28:31;;;;;;;;;;;;;;;;;;5018597;28;19924;-68
2024/02/19 16:30:57;;;;;;;;;;;;;;;;;;5050991;28;19925;-69
2024/02/19 16:33:23;;;;;;;;;;;;;;;;;;5045936;28;19929;-68
2024/02/19 16:35:50;;;;;;;;;;;;;;;;;;5028001;28;19967;-68
2024/02/19 16:38:16;;;;;;;;;;;;;;;;;;5044301;28;19931;-68